sensor_id;sensor_type;location;lat;lon;timestamp;pressure;altitude;pressure_sealevel;temperature
20058;BMP180;10189;49.546;7.906;2023-11-22T00:01:05;98734.00;;;6.90
20058;BMP180;10189;49.546;7.906;2023-11-22T00:03:32;98747.00;;;6.90
20058;BMP180;10189;49.546;7.906;2023-11-22T00:05:58;98762.00;;;6.90
20058;BMP180;10189;49.546;7.906;2023-11-22T00:08:24;98745.00;;;6.90
20058;BMP180;10189;49.546;7.906;2023-11-22T00:10:50;98752.00;;;6.90
20058;BMP180;10189;49.546;7.906;2023-11-22T00:13:16;98754.00;;;6.90
20058;BMP180;10189;49.546;7.906;2023-11-22T00:15:41;98759.00;;;6.90
20058;BMP180;10189;49.546;7.906;2023-11-22T00:18:07;98752.00;;;6.80
20058;BMP180;10189;49.546;7.906;2023-11-22T00:20:33;98754.00;;;6.80
20058;BMP180;10189;49.546;7.906;2023-11-22T00:22:59;98761.00;;;6.80
20058;BMP180;10189;49.546;7.906;2023-11-22T00:25:25;98763.00;;;6.90
20058;BMP180;10189;49.546;7.906;2023-11-22T00:27:51;98756.00;;;6.80
20058;BMP180;10189;49.546;7.906;2023-11-22T00:30:17;98757.00;;;6.80
20058;BMP180;10189;49.546;7.906;2023-11-22T00:32:44;98752.00;;;6.80
20058;BMP180;10189;49.546;7.906;2023-11-22T00:35:10;98770.00;;;6.80
20058;BMP180;10189;49.546;7.906;2023-11-22T00:37:36;98766.00;;;6.80
20058;BMP180;10189;49.546;7.906;2023-11-22T00:40:03;98777.00;;;6.70
20058;BMP180;10189;49.546;7.906;2023-11-22T00:42:37;98769.00;;;6.70
20058;BMP180;10189;49.546;7.906;2023-11-22T00:45:06;98779.00;;;6.60
20058;BMP180;10189;49.546;7.906;2023-11-22T00:47:33;98768.00;;;6.60
20058;BMP180;10189;49.546;7.906;2023-11-22T00:49:59;98775.00;;;6.40
20058;BMP180;10189;49.546;7.906;2023-11-22T00:52:25;98774.00;;;6.40
20058;BMP180;10189;49.546;7.906;2023-11-22T00:54:51;98777.00;;;6.30
20058;BMP180;10189;49.546;7.906;2023-11-22T00:57:17;98775.00;;;6.30
20058;BMP180;10189;49.546;7.906;2023-11-22T00:59:43;98795.00;;;6.20
20058;BMP180;10189;49.546;7.906;2023-11-22T01:02:09;98794.00;;;6.20
20058;BMP180;10189;49.546;7.906;2023-11-22T01:04:35;98786.00;;;6.20
20058;BMP180;10189;49.546;7.906;2023-11-22T01:07:03;98791.00;;;6.10
20058;BMP180;10189;49.546;7.906;2023-11-22T01:09:33;98786.00;;;6.10
20058;BMP180;10189;49.546;7.906;2023-11-22T01:11:59;98799.00;;;6.00
20058;BMP180;10189;49.546;7.906;2023-11-22T01:14:26;98799.00;;;6.00
20058;BMP180;10189;49.546;7.906;2023-11-22T01:16:53;98799.00;;;6.00
20058;BMP180;10189;49.546;7.906;2023-11-22T01:19:20;98803.00;;;5.90
20058;BMP180;10189;49.546;7.906;2023-11-22T01:21:46;98806.00;;;6.00
20058;BMP180;10189;49.546;7.906;2023-11-22T01:24:12;98806.00;;;6.00
20058;BMP180;10189;49.546;7.906;2023-11-22T01:26:38;98801.00;;;6.00
20058;BMP180;10189;49.546;7.906;2023-11-22T01:29:05;98822.00;;;6.00
20058;BMP180;10189;49.546;7.906;2023-11-22T01:31:31;98814.00;;;6.00
20058;BMP180;10189;49.546;7.906;2023-11-22T01:33:59;98817.00;;;5.80
20058;BMP180;10189;49.546;7.906;2023-11-22T01:36:26;98818.00;;;5.90
20058;BMP180;10189;49.546;7.906;2023-11-22T01:38:53;98817.00;;;5.90
20058;BMP180;10189;49.546;7.906;2023-11-22T01:41:19;98822.00;;;5.80
20058;BMP180;10189;49.546;7.906;2023-11-22T01:43:45;98824.00;;;5.80
20058;BMP180;10189;49.546;7.906;2023-11-22T01:46:22;98821.00;;;5.70
20058;BMP180;10189;49.546;7.906;2023-11-22T01:48:53;98830.00;;;5.70
20058;BMP180;10189;49.546;7.906;2023-11-22T01:51:21;98833.00;;;5.60
20058;BMP180;10189;49.546;7.906;2023-11-22T01:53:53;98837.00;;;5.60
20058;BMP180;10189;49.546;7.906;2023-11-22T01:56:25;98847.00;;;5.60
20058;BMP180;10189;49.546;7.906;2023-11-22T01:58:54;98850.00;;;5.60
20058;BMP180;10189;49.546;7.906;2023-11-22T02:01:21;98845.00;;;5.60
20058;BMP180;10189;49.546;7.906;2023-11-22T02:03:47;98851.00;;;5.60
20058;BMP180;10189;49.546;7.906;2023-11-22T02:06:16;98846.00;;;5.60
20058;BMP180;10189;49.546;7.906;2023-11-22T02:08:44;98843.00;;;5.60
20058;BMP180;10189;49.546;7.906;2023-11-22T02:11:10;98853.00;;;5.60
20058;BMP180;10189;49.546;7.906;2023-11-22T02:13:36;98858.00;;;5.60
20058;BMP180;10189;49.546;7.906;2023-11-22T02:16:03;98864.00;;;5.50
20058;BMP180;10189;49.546;7.906;2023-11-22T02:18:29;98861.00;;;5.40
20058;BMP180;10189;49.546;7.906;2023-11-22T02:20:56;98871.00;;;5.30
20058;BMP180;10189;49.546;7.906;2023-11-22T02:23:22;98863.00;;;5.30
20058;BMP180;10189;49.546;7.906;2023-11-22T02:25:49;98869.00;;;5.30
20058;BMP180;10189;49.546;7.906;2023-11-22T02:28:15;98875.00;;;5.30
20058;BMP180;10189;49.546;7.906;2023-11-22T02:30:42;98874.00;;;5.30
20058;BMP180;10189;49.546;7.906;2023-11-22T02:33:08;98887.00;;;5.30
20058;BMP180;10189;49.546;7.906;2023-11-22T02:35:34;98886.00;;;5.30
20058;BMP180;10189;49.546;7.906;2023-11-22T02:38:00;98886.00;;;5.30
20058;BMP180;10189;49.546;7.906;2023-11-22T02:40:27;98882.00;;;5.30
20058;BMP180;10189;49.546;7.906;2023-11-22T02:42:54;98892.00;;;5.20
20058;BMP180;10189;49.546;7.906;2023-11-22T02:45:27;98892.00;;;5.20
20058;BMP180;10189;49.546;7.906;2023-11-22T02:47:54;98897.00;;;5.10
20058;BMP180;10189;49.546;7.906;2023-11-22T02:50:20;98897.00;;;5.10
20058;BMP180;10189;49.546;7.906;2023-11-22T02:52:46;98902.00;;;5.00
20058;BMP180;10189;49.546;7.906;2023-11-22T02:55:12;98902.00;;;5.10
20058;BMP180;10189;49.546;7.906;2023-11-22T02:57:39;98896.00;;;5.00
20058;BMP180;10189;49.546;7.906;2023-11-22T03:00:09;98898.00;;;5.10
20058;BMP180;10189;49.546;7.906;2023-11-22T03:02:39;98900.00;;;5.10
20058;BMP180;10189;49.546;7.906;2023-11-22T03:05:08;98901.00;;;5.00
20058;BMP180;10189;49.546;7.906;2023-11-22T03:07:35;98915.00;;;5.10
20058;BMP180;10189;49.546;7.906;2023-11-22T03:10:03;98910.00;;;5.20
20058;BMP180;10189;49.546;7.906;2023-11-22T03:12:29;98916.00;;;5.20
20058;BMP180;10189;49.546;7.906;2023-11-22T03:14:54;98910.00;;;5.20
20058;BMP180;10189;49.546;7.906;2023-11-22T03:17:25;98923.00;;;5.10
20058;BMP180;10189;49.546;7.906;2023-11-22T03:19:51;98927.00;;;5.20
20058;BMP180;10189;49.546;7.906;2023-11-22T03:22:17;98940.00;;;5.10
20058;BMP180;10189;49.546;7.906;2023-11-22T03:24:43;98937.00;;;5.00
20058;BMP180;10189;49.546;7.906;2023-11-22T03:27:09;98940.00;;;5.10
20058;BMP180;10189;49.546;7.906;2023-11-22T03:29:37;98953.00;;;5.10
20058;BMP180;10189;49.546;7.906;2023-11-22T03:32:04;98945.00;;;5.20
20058;BMP180;10189;49.546;7.906;2023-11-22T03:34:30;98949.00;;;5.20
20058;BMP180;10189;49.546;7.906;2023-11-22T03:36:55;98948.00;;;5.20
20058;BMP180;10189;49.546;7.906;2023-11-22T03:39:23;98959.00;;;5.20
20058;BMP180;10189;49.546;7.906;2023-11-22T03:41:48;98962.00;;;5.20
20058;BMP180;10189;49.546;7.906;2023-11-22T03:44:16;98963.00;;;5.20
20058;BMP180;10189;49.546;7.906;2023-11-22T03:46:42;98972.00;;;5.10
20058;BMP180;10189;49.546;7.906;2023-11-22T03:49:08;98966.00;;;5.00
20058;BMP180;10189;49.546;7.906;2023-11-22T03:51:36;98967.00;;;5.00
20058;BMP180;10189;49.546;7.906;2023-11-22T03:54:02;98966.00;;;5.00
20058;BMP180;10189;49.546;7.906;2023-11-22T03:56:29;98977.00;;;5.00
20058;BMP180;10189;49.546;7.906;2023-11-22T03:58:55;99000.00;;;4.90
20058;BMP180;10189;49.546;7.906;2023-11-22T04:01:22;98987.00;;;4.90
20058;BMP180;10189;49.546;7.906;2023-11-22T04:03:48;98999.00;;;4.90
20058;BMP180;10189;49.546;7.906;2023-11-22T04:06:18;99009.00;;;4.80
20058;BMP180;10189;49.546;7.906;2023-11-22T04:08:45;99006.00;;;4.70
20058;BMP180;10189;49.546;7.906;2023-11-22T04:11:15;99004.00;;;4.70
20058;BMP180;10189;49.546;7.906;2023-11-22T04:13:44;99000.00;;;4.70
20058;BMP180;10189;49.546;7.906;2023-11-22T04:16:11;99006.00;;;4.80
20058;BMP180;10189;49.546;7.906;2023-11-22T04:18:41;99006.00;;;4.70
20058;BMP180;10189;49.546;7.906;2023-11-22T04:21:10;99019.00;;;4.70
20058;BMP180;10189;49.546;7.906;2023-11-22T04:23:36;99029.00;;;4.60
20058;BMP180;10189;49.546;7.906;2023-11-22T04:26:04;99025.00;;;4.50
20058;BMP180;10189;49.546;7.906;2023-11-22T04:28:33;99029.00;;;4.40
20058;BMP180;10189;49.546;7.906;2023-11-22T04:31:00;99029.00;;;4.50
20058;BMP180;10189;49.546;7.906;2023-11-22T04:33:26;99031.00;;;4.40
20058;BMP180;10189;49.546;7.906;2023-11-22T04:35:55;99029.00;;;4.40
20058;BMP180;10189;49.546;7.906;2023-11-22T04:38:22;99033.00;;;4.40
20058;BMP180;10189;49.546;7.906;2023-11-22T04:40:48;99026.00;;;4.40
20058;BMP180;10189;49.546;7.906;2023-11-22T04:43:14;99031.00;;;4.40
20058;BMP180;10189;49.546;7.906;2023-11-22T04:45:39;99038.00;;;4.40
20058;BMP180;10189;49.546;7.906;2023-11-22T04:48:06;99035.00;;;4.50
20058;BMP180;10189;49.546;7.906;2023-11-22T04:50:32;99032.00;;;4.30
20058;BMP180;10189;49.546;7.906;2023-11-22T04:52:58;99050.00;;;4.40
20058;BMP180;10189;49.546;7.906;2023-11-22T04:55:24;99047.00;;;4.30
20058;BMP180;10189;49.546;7.906;2023-11-22T04:57:50;99038.00;;;4.30
20058;BMP180;10189;49.546;7.906;2023-11-22T05:00:16;99051.00;;;4.30
20058;BMP180;10189;49.546;7.906;2023-11-22T05:02:45;99056.00;;;4.30
20058;BMP180;10189;49.546;7.906;2023-11-22T05:05:11;99060.00;;;4.30
20058;BMP180;10189;49.546;7.906;2023-11-22T05:07:38;99054.00;;;4.20
20058;BMP180;10189;49.546;7.906;2023-11-22T05:10:05;99062.00;;;4.10
20058;BMP180;10189;49.546;7.906;2023-11-22T05:12:33;99060.00;;;4.10
20058;BMP180;10189;49.546;7.906;2023-11-22T05:14:59;99061.00;;;4.20
20058;BMP180;10189;49.546;7.906;2023-11-22T05:17:25;99067.00;;;4.10
20058;BMP180;10189;49.546;7.906;2023-11-22T05:19:51;99054.00;;;4.10
20058;BMP180;10189;49.546;7.906;2023-11-22T05:22:17;99070.00;;;3.90
20058;BMP180;10189;49.546;7.906;2023-11-22T05:24:43;99080.00;;;3.80
20058;BMP180;10189;49.546;7.906;2023-11-22T05:27:09;99076.00;;;3.60
20058;BMP180;10189;49.546;7.906;2023-11-22T05:29:36;99086.00;;;3.60
20058;BMP180;10189;49.546;7.906;2023-11-22T05:32:02;99096.00;;;3.40
20058;BMP180;10189;49.546;7.906;2023-11-22T05:34:29;99097.00;;;3.60
20058;BMP180;10189;49.546;7.906;2023-11-22T05:36:55;99104.00;;;3.50
20058;BMP180;10189;49.546;7.906;2023-11-22T05:39:21;99103.00;;;3.50
20058;BMP180;10189;49.546;7.906;2023-11-22T05:41:53;99111.00;;;3.50
20058;BMP180;10189;49.546;7.906;2023-11-22T05:44:20;99102.00;;;3.60
20058;BMP180;10189;49.546;7.906;2023-11-22T05:46:46;99099.00;;;3.50
20058;BMP180;10189;49.546;7.906;2023-11-22T05:49:11;99108.00;;;3.50
20058;BMP180;10189;49.546;7.906;2023-11-22T05:51:37;99110.00;;;3.40
20058;BMP180;10189;49.546;7.906;2023-11-22T05:54:04;99106.00;;;3.30
20058;BMP180;10189;49.546;7.906;2023-11-22T05:56:30;99109.00;;;3.20
20058;BMP180;10189;49.546;7.906;2023-11-22T05:58:57;99117.00;;;3.20
20058;BMP180;10189;49.546;7.906;2023-11-22T06:01:23;99132.00;;;3.20
20058;BMP180;10189;49.546;7.906;2023-11-22T06:03:49;99128.00;;;3.20
20058;BMP180;10189;49.546;7.906;2023-11-22T06:06:15;99131.00;;;3.20
20058;BMP180;10189;49.546;7.906;2023-11-22T06:08:41;99133.00;;;3.20
20058;BMP180;10189;49.546;7.906;2023-11-22T06:11:06;99142.00;;;3.20
20058;BMP180;10189;49.546;7.906;2023-11-22T06:13:33;99139.00;;;3.20
20058;BMP180;10189;49.546;7.906;2023-11-22T06:15:59;99153.00;;;3.10
20058;BMP180;10189;49.546;7.906;2023-11-22T06:18:24;99149.00;;;3.10
20058;BMP180;10189;49.546;7.906;2023-11-22T06:20:56;99161.00;;;3.00
20058;BMP180;10189;49.546;7.906;2023-11-22T06:23:22;99160.00;;;3.00
20058;BMP180;10189;49.546;7.906;2023-11-22T06:25:48;99160.00;;;2.90
20058;BMP180;10189;49.546;7.906;2023-11-22T06:28:14;99161.00;;;2.90
20058;BMP180;10189;49.546;7.906;2023-11-22T06:30:40;99170.00;;;2.90
20058;BMP180;10189;49.546;7.906;2023-11-22T06:33:06;99175.00;;;3.00
20058;BMP180;10189;49.546;7.906;2023-11-22T06:35:32;99185.00;;;2.90
20058;BMP180;10189;49.546;7.906;2023-11-22T06:37:58;99190.00;;;2.90
20058;BMP180;10189;49.546;7.906;2023-11-22T06:40:24;99183.00;;;2.90
20058;BMP180;10189;49.546;7.906;2023-11-22T06:42:50;99175.00;;;3.10
20058;BMP180;10189;49.546;7.906;2023-11-22T06:45:17;99164.00;;;3.30
20058;BMP180;10189;49.546;7.906;2023-11-22T06:47:43;99176.00;;;3.30
20058;BMP180;10189;49.546;7.906;2023-11-22T06:50:10;99191.00;;;3.30
20058;BMP180;10189;49.546;7.906;2023-11-22T06:52:40;99194.00;;;3.20
20058;BMP180;10189;49.546;7.906;2023-11-22T06:55:08;99190.00;;;3.00
20058;BMP180;10189;49.546;7.906;2023-11-22T06:57:37;99192.00;;;3.00
20058;BMP180;10189;49.546;7.906;2023-11-22T07:00:07;99195.00;;;3.00
20058;BMP180;10189;49.546;7.906;2023-11-22T07:02:36;99201.00;;;3.00
20058;BMP180;10189;49.546;7.906;2023-11-22T07:05:04;99197.00;;;3.00
20058;BMP180;10189;49.546;7.906;2023-11-22T07:07:34;99193.00;;;3.10
20058;BMP180;10189;49.546;7.906;2023-11-22T07:10:00;99195.00;;;3.20
20058;BMP180;10189;49.546;7.906;2023-11-22T07:12:26;99185.00;;;3.30
20058;BMP180;10189;49.546;7.906;2023-11-22T07:14:54;99196.00;;;3.30
20058;BMP180;10189;49.546;7.906;2023-11-22T07:17:21;99185.00;;;3.50
20058;BMP180;10189;49.546;7.906;2023-11-22T07:19:48;99197.00;;;3.40
20058;BMP180;10189;49.546;7.906;2023-11-22T07:22:15;99202.00;;;3.40
20058;BMP180;10189;49.546;7.906;2023-11-22T07:24:45;99196.00;;;3.60
20058;BMP180;10189;49.546;7.906;2023-11-22T07:27:16;99199.00;;;3.80
20058;BMP180;10189;49.546;7.906;2023-11-22T07:29:44;99195.00;;;3.90
20058;BMP180;10189;49.546;7.906;2023-11-22T07:32:11;99210.00;;;4.00
20058;BMP180;10189;49.546;7.906;2023-11-22T07:34:39;99198.00;;;4.10
20058;BMP180;10189;49.546;7.906;2023-11-22T07:37:08;99198.00;;;4.10
20058;BMP180;10189;49.546;7.906;2023-11-22T07:39:35;99197.00;;;4.20
20058;BMP180;10189;49.546;7.906;2023-11-22T07:42:02;99197.00;;;4.30
20058;BMP180;10189;49.546;7.906;2023-11-22T07:44:28;99201.00;;;4.30
20058;BMP180;10189;49.546;7.906;2023-11-22T07:46:59;99192.00;;;4.30
20058;BMP180;10189;49.546;7.906;2023-11-22T07:49:26;99194.00;;;4.30
20058;BMP180;10189;49.546;7.906;2023-11-22T07:51:52;99188.00;;;4.40
20058;BMP180;10189;49.546;7.906;2023-11-22T07:54:21;99189.00;;;4.40
20058;BMP180;10189;49.546;7.906;2023-11-22T07:56:51;99195.00;;;4.40
20058;BMP180;10189;49.546;7.906;2023-11-22T07:59:20;99192.00;;;4.40
20058;BMP180;10189;49.546;7.906;2023-11-22T08:01:46;99197.00;;;4.50
20058;BMP180;10189;49.546;7.906;2023-11-22T08:04:15;99183.00;;;4.60
20058;BMP180;10189;49.546;7.906;2023-11-22T08:06:42;99190.00;;;4.60
20058;BMP180;10189;49.546;7.906;2023-11-22T08:09:08;99186.00;;;4.70
20058;BMP180;10189;49.546;7.906;2023-11-22T08:11:36;99170.00;;;4.70
20058;BMP180;10189;49.546;7.906;2023-11-22T08:14:03;99169.00;;;4.70
20058;BMP180;10189;49.546;7.906;2023-11-22T08:16:30;99192.00;;;4.60
20058;BMP180;10189;49.546;7.906;2023-11-22T08:18:56;99187.00;;;4.50
20058;BMP180;10189;49.546;7.906;2023-11-22T08:21:23;99192.00;;;4.40
20058;BMP180;10189;49.546;7.906;2023-11-22T08:23:50;99196.00;;;4.40
20058;BMP180;10189;49.546;7.906;2023-11-22T08:26:19;99195.00;;;4.60
20058;BMP180;10189;49.546;7.906;2023-11-22T08:28:45;99185.00;;;4.70
20058;BMP180;10189;49.546;7.906;2023-11-22T08:31:11;99205.00;;;4.90
20058;BMP180;10189;49.546;7.906;2023-11-22T08:33:38;99206.00;;;4.80
20058;BMP180;10189;49.546;7.906;2023-11-22T08:36:06;99221.00;;;4.90
20058;BMP180;10189;49.546;7.906;2023-11-22T08:38:34;99211.00;;;5.10
20058;BMP180;10189;49.546;7.906;2023-11-22T08:41:06;99220.00;;;5.10
20058;BMP180;10189;49.546;7.906;2023-11-22T08:43:33;99223.00;;;4.80
20058;BMP180;10189;49.546;7.906;2023-11-22T08:46:01;99231.00;;;4.80
20058;BMP180;10189;49.546;7.906;2023-11-22T08:48:30;99227.00;;;4.80
20058;BMP180;10189;49.546;7.906;2023-11-22T08:50:56;99221.00;;;4.80
20058;BMP180;10189;49.546;7.906;2023-11-22T08:53:23;99225.00;;;4.80
20058;BMP180;10189;49.546;7.906;2023-11-22T08:55:49;99233.00;;;4.70
20058;BMP180;10189;49.546;7.906;2023-11-22T08:58:15;99230.00;;;4.80
20058;BMP180;10189;49.546;7.906;2023-11-22T09:00:41;99244.00;;;4.50
20058;BMP180;10189;49.546;7.906;2023-11-22T09:03:08;99255.00;;;4.50
20058;BMP180;10189;49.546;7.906;2023-11-22T09:05:44;99239.00;;;4.80
20058;BMP180;10189;49.546;7.906;2023-11-22T09:08:12;99256.00;;;4.90
20058;BMP180;10189;49.546;7.906;2023-11-22T09:10:41;99246.00;;;4.90
20058;BMP180;10189;49.546;7.906;2023-11-22T09:13:10;99238.00;;;5.20
20058;BMP180;10189;49.546;7.906;2023-11-22T09:15:37;99237.00;;;5.40
20058;BMP180;10189;49.546;7.906;2023-11-22T09:18:05;99217.00;;;5.50
20058;BMP180;10189;49.546;7.906;2023-11-22T09:20:32;99222.00;;;5.50
20058;BMP180;10189;49.546;7.906;2023-11-22T09:22:58;99210.00;;;5.70
20058;BMP180;10189;49.546;7.906;2023-11-22T09:25:25;99213.00;;;5.50
20058;BMP180;10189;49.546;7.906;2023-11-22T09:27:55;99208.00;;;5.60
20058;BMP180;10189;49.546;7.906;2023-11-22T09:30:26;99204.00;;;5.80
20058;BMP180;10189;49.546;7.906;2023-11-22T09:33:10;99208.00;;;5.70
20058;BMP180;10189;49.546;7.906;2023-11-22T09:35:37;99213.00;;;5.80
20058;BMP180;10189;49.546;7.906;2023-11-22T09:38:07;99229.00;;;5.60
20058;BMP180;10189;49.546;7.906;2023-11-22T09:40:36;99222.00;;;5.60
20058;BMP180;10189;49.546;7.906;2023-11-22T09:43:02;99227.00;;;5.60
20058;BMP180;10189;49.546;7.906;2023-11-22T09:45:30;99232.00;;;5.60
20058;BMP180;10189;49.546;7.906;2023-11-22T09:47:57;99226.00;;;5.40
20058;BMP180;10189;49.546;7.906;2023-11-22T09:50:49;99224.00;;;5.50
20058;BMP180;10189;49.546;7.906;2023-11-22T09:53:32;99225.00;;;5.50
20058;BMP180;10189;49.546;7.906;2023-11-22T09:56:03;99219.00;;;5.50
20058;BMP180;10189;49.546;7.906;2023-11-22T09:58:30;99226.00;;;5.40
20058;BMP180;10189;49.546;7.906;2023-11-22T10:01:01;99236.00;;;5.40
20058;BMP180;10189;49.546;7.906;2023-11-22T10:03:27;99254.00;;;5.30
20058;BMP180;10189;49.546;7.906;2023-11-22T10:05:57;99250.00;;;5.10
20058;BMP180;10189;49.546;7.906;2023-11-22T10:08:30;99252.00;;;5.20
20058;BMP180;10189;49.546;7.906;2023-11-22T10:10:57;99263.00;;;5.40
20058;BMP180;10189;49.546;7.906;2023-11-22T10:13:23;99288.00;;;5.30
20058;BMP180;10189;49.546;7.906;2023-11-22T10:15:50;99277.00;;;5.20
20058;BMP180;10189;49.546;7.906;2023-11-22T10:18:22;99300.00;;;5.30
20058;BMP180;10189;49.546;7.906;2023-11-22T10:20:51;99281.00;;;5.30
20058;BMP180;10189;49.546;7.906;2023-11-22T10:23:19;99271.00;;;5.50
20058;BMP180;10189;49.546;7.906;2023-11-22T10:25:53;99281.00;;;5.30
20058;BMP180;10189;49.546;7.906;2023-11-22T10:28:21;99282.00;;;5.20
20058;BMP180;10189;49.546;7.906;2023-11-22T10:30:49;99282.00;;;5.20
20058;BMP180;10189;49.546;7.906;2023-11-22T10:33:21;99296.00;;;5.40
20058;BMP180;10189;49.546;7.906;2023-11-22T10:35:50;99291.00;;;5.60
20058;BMP180;10189;49.546;7.906;2023-11-22T10:38:20;99288.00;;;5.70
20058;BMP180;10189;49.546;7.906;2023-11-22T10:40:46;99283.00;;;5.90
20058;BMP180;10189;49.546;7.906;2023-11-22T10:43:17;99310.00;;;5.30
20058;BMP180;10189;49.546;7.906;2023-11-22T10:45:44;99305.00;;;5.30
20058;BMP180;10189;49.546;7.906;2023-11-22T10:48:15;99306.00;;;5.30
20058;BMP180;10189;49.546;7.906;2023-11-22T10:50:43;99304.00;;;5.30
20058;BMP180;10189;49.546;7.906;2023-11-22T10:53:13;99300.00;;;5.30
20058;BMP180;10189;49.546;7.906;2023-11-22T10:55:48;99289.00;;;5.20
20058;BMP180;10189;49.546;7.906;2023-11-22T10:58:15;99296.00;;;5.20
20058;BMP180;10189;49.546;7.906;2023-11-22T11:00:42;99304.00;;;5.30
20058;BMP180;10189;49.546;7.906;2023-11-22T11:03:18;99311.00;;;5.30
20058;BMP180;10189;49.546;7.906;2023-11-22T11:06:02;99315.00;;;5.40
20058;BMP180;10189;49.546;7.906;2023-11-22T11:08:32;99328.00;;;5.40
20058;BMP180;10189;49.546;7.906;2023-11-22T11:11:00;99332.00;;;5.20
20058;BMP180;10189;49.546;7.906;2023-11-22T11:13:29;99351.00;;;5.20
20058;BMP180;10189;49.546;7.906;2023-11-22T11:15:57;99342.00;;;5.30
20058;BMP180;10189;49.546;7.906;2023-11-22T11:18:25;99326.00;;;5.70
20058;BMP180;10189;49.546;7.906;2023-11-22T11:20:58;99318.00;;;6.00
20058;BMP180;10189;49.546;7.906;2023-11-22T11:23:28;99327.00;;;5.70
20058;BMP180;10189;49.546;7.906;2023-11-22T11:26:08;99329.00;;;5.70
20058;BMP180;10189;49.546;7.906;2023-11-22T11:28:46;99331.00;;;5.50
20058;BMP180;10189;49.546;7.906;2023-11-22T11:31:14;99326.00;;;5.70
20058;BMP180;10189;49.546;7.906;2023-11-22T11:36:28;99319.00;;;5.80
20058;BMP180;10189;49.546;7.906;2023-11-22T11:38:56;99326.00;;;5.90
20058;BMP180;10189;49.546;7.906;2023-11-22T11:41:29;99337.00;;;5.90
20058;BMP180;10189;49.546;7.906;2023-11-22T11:44:00;99328.00;;;5.60
20058;BMP180;10189;49.546;7.906;2023-11-22T11:46:29;99337.00;;;5.50
20058;BMP180;10189;49.546;7.906;2023-11-22T11:48:56;99333.00;;;5.40
20058;BMP180;10189;49.546;7.906;2023-11-22T11:51:27;99340.00;;;5.40
20058;BMP180;10189;49.546;7.906;2023-11-22T11:53:54;99353.00;;;5.50
20058;BMP180;10189;49.546;7.906;2023-11-22T11:56:21;99356.00;;;5.50
20058;BMP180;10189;49.546;7.906;2023-11-22T11:58:49;99346.00;;;5.50
20058;BMP180;10189;49.546;7.906;2023-11-22T12:01:17;99357.00;;;5.40
20058;BMP180;10189;49.546;7.906;2023-11-22T12:03:43;99363.00;;;5.50
20058;BMP180;10189;49.546;7.906;2023-11-22T12:06:10;99359.00;;;5.00
20058;BMP180;10189;49.546;7.906;2023-11-22T12:08:36;99348.00;;;5.20
20058;BMP180;10189;49.546;7.906;2023-11-22T12:11:03;99334.00;;;5.40
20058;BMP180;10189;49.546;7.906;2023-11-22T12:13:37;99326.00;;;5.70
20058;BMP180;10189;49.546;7.906;2023-11-22T12:16:16;99324.00;;;5.90
20058;BMP180;10189;49.546;7.906;2023-11-22T12:18:44;99328.00;;;6.10
20058;BMP180;10189;49.546;7.906;2023-11-22T12:21:12;99324.00;;;6.10
20058;BMP180;10189;49.546;7.906;2023-11-22T12:23:42;99335.00;;;6.20
20058;BMP180;10189;49.546;7.906;2023-11-22T12:26:13;99323.00;;;6.20
20058;BMP180;10189;49.546;7.906;2023-11-22T12:28:40;99313.00;;;6.00
20058;BMP180;10189;49.546;7.906;2023-11-22T12:31:11;99304.00;;;6.00
20058;BMP180;10189;49.546;7.906;2023-11-22T12:33:38;99307.00;;;5.80
20058;BMP180;10189;49.546;7.906;2023-11-22T12:36:07;99304.00;;;5.70
20058;BMP180;10189;49.546;7.906;2023-11-22T12:38:35;99281.00;;;5.90
20058;BMP180;10189;49.546;7.906;2023-11-22T12:41:01;99281.00;;;5.60
20058;BMP180;10189;49.546;7.906;2023-11-22T12:43:34;99298.00;;;5.30
20058;BMP180;10189;49.546;7.906;2023-11-22T12:46:07;99299.00;;;5.40
20058;BMP180;10189;49.546;7.906;2023-11-22T12:48:33;99295.00;;;5.60
20058;BMP180;10189;49.546;7.906;2023-11-22T12:51:00;99293.00;;;5.70
20058;BMP180;10189;49.546;7.906;2023-11-22T12:53:27;99290.00;;;5.90
20058;BMP180;10189;49.546;7.906;2023-11-22T12:55:56;99281.00;;;5.90
20058;BMP180;10189;49.546;7.906;2023-11-22T12:58:24;99297.00;;;5.60
20058;BMP180;10189;49.546;7.906;2023-11-22T13:00:52;99304.00;;;5.60
20058;BMP180;10189;49.546;7.906;2023-11-22T13:03:24;99315.00;;;5.50
20058;BMP180;10189;49.546;7.906;2023-11-22T13:05:51;99322.00;;;5.20
20058;BMP180;10189;49.546;7.906;2023-11-22T13:08:21;99330.00;;;5.10
20058;BMP180;10189;49.546;7.906;2023-11-22T13:10:49;99340.00;;;5.00
20058;BMP180;10189;49.546;7.906;2023-11-22T13:13:25;99353.00;;;5.00
20058;BMP180;10189;49.546;7.906;2023-11-22T13:15:53;99359.00;;;5.20
20058;BMP180;10189;49.546;7.906;2023-11-22T13:18:19;99364.00;;;5.40
20058;BMP180;10189;49.546;7.906;2023-11-22T13:20:47;99379.00;;;5.30
20058;BMP180;10189;49.546;7.906;2023-11-22T13:23:13;99359.00;;;5.50
20058;BMP180;10189;49.546;7.906;2023-11-22T13:25:42;99337.00;;;5.80
20058;BMP180;10189;49.546;7.906;2023-11-22T13:28:08;99316.00;;;5.70
20058;BMP180;10189;49.546;7.906;2023-11-22T13:30:34;99306.00;;;5.80
20058;BMP180;10189;49.546;7.906;2023-11-22T13:33:01;99309.00;;;5.80
20058;BMP180;10189;49.546;7.906;2023-11-22T13:35:29;99297.00;;;5.80
20058;BMP180;10189;49.546;7.906;2023-11-22T13:38:03;99288.00;;;5.80
20058;BMP180;10189;49.546;7.906;2023-11-22T13:40:35;99278.00;;;5.80
20058;BMP180;10189;49.546;7.906;2023-11-22T13:43:01;99270.00;;;5.80
20058;BMP180;10189;49.546;7.906;2023-11-22T13:45:29;99268.00;;;5.80
20058;BMP180;10189;49.546;7.906;2023-11-22T13:47:55;99275.00;;;5.70
20058;BMP180;10189;49.546;7.906;2023-11-22T13:50:26;99270.00;;;5.60
20058;BMP180;10189;49.546;7.906;2023-11-22T13:52:54;99291.00;;;5.30
20058;BMP180;10189;49.546;7.906;2023-11-22T13:55:20;99287.00;;;5.30
20058;BMP180;10189;49.546;7.906;2023-11-22T13:57:54;99282.00;;;5.30
20058;BMP180;10189;49.546;7.906;2023-11-22T14:00:28;99289.00;;;5.20
20058;BMP180;10189;49.546;7.906;2023-11-22T14:02:59;99277.00;;;5.20
20058;BMP180;10189;49.546;7.906;2023-11-22T14:05:33;99291.00;;;5.20
20058;BMP180;10189;49.546;7.906;2023-11-22T14:08:00;99293.00;;;5.00
20058;BMP180;10189;49.546;7.906;2023-11-22T14:10:26;99296.00;;;4.90
20058;BMP180;10189;49.546;7.906;2023-11-22T14:12:52;99293.00;;;4.90
20058;BMP180;10189;49.546;7.906;2023-11-22T14:15:18;99298.00;;;5.00
20058;BMP180;10189;49.546;7.906;2023-11-22T14:17:45;99314.00;;;5.00
20058;BMP180;10189;49.546;7.906;2023-11-22T14:20:15;99300.00;;;5.00
20058;BMP180;10189;49.546;7.906;2023-11-22T14:22:42;99310.00;;;5.00
20058;BMP180;10189;49.546;7.906;2023-11-22T14:25:10;99336.00;;;5.00
20058;BMP180;10189;49.546;7.906;2023-11-22T14:27:39;99339.00;;;4.90